createdAt,value
2019-04-30T00:00:17.988Z,0
2019-04-30T00:01:18.885Z,0
2019-04-30T00:02:17.852Z,0
2019-04-30T00:03:19.673Z,0
2019-04-30T00:05:05.352Z,0
2019-04-30T00:06:07.193Z,0
2019-04-30T00:07:10.160Z,0
2019-04-30T00:08:07.444Z,0
2019-04-30T00:09:53.894Z,0
2019-04-30T00:10:55.536Z,0
2019-04-30T00:12:01.023Z,0
2019-04-30T00:12:57.380Z,0
2019-04-30T00:14:42.415Z,0
2019-04-30T00:15:42.990Z,0
2019-04-30T00:16:45.111Z,0
2019-04-30T00:17:45.713Z,0
2019-04-30T00:19:31.159Z,0
2019-04-30T00:20:37.211Z,0
2019-04-30T00:21:33.300Z,0
2019-04-30T00:22:34.477Z,0
2019-04-30T00:24:19.906Z,0
2019-04-30T00:25:24.957Z,0
2019-04-30T00:26:22.098Z,0
2019-04-30T00:27:28.292Z,0
2019-04-30T00:29:08.802Z,0
2019-04-30T00:30:09.381Z,0
2019-04-30T00:31:10.018Z,0
2019-04-30T00:32:10.577Z,0
2019-04-30T00:33:57.839Z,0
2019-04-30T00:34:57.741Z,0
2019-04-30T00:35:58.306Z,0
2019-04-30T00:36:58.882Z,0
2019-04-30T00:38:44.794Z,0
2019-04-30T00:39:50.997Z,0
2019-04-30T00:40:46.969Z,0
2019-04-30T00:41:47.636Z,0
2019-04-30T00:43:32.819Z,0
2019-04-30T00:44:33.391Z,0
2019-04-30T00:45:35.321Z,0
2019-04-30T00:46:36.446Z,0
2019-04-30T00:48:28.079Z,0
2019-04-30T00:49:24.863Z,0
2019-04-30T00:50:24.893Z,0
2019-04-30T00:51:26.220Z,0
2019-04-30T00:53:12.685Z,0
2019-04-30T00:54:12.941Z,0
2019-04-30T00:55:15.011Z,0
2019-04-30T00:56:15.775Z,0
2019-04-30T00:58:01.162Z,0
2019-04-30T00:59:02.506Z,0
2019-04-30T01:00:05.022Z,0
2019-04-30T01:01:08.074Z,0
2019-04-30T01:02:50.905Z,0
2019-04-30T01:03:51.479Z,0
2019-04-30T01:04:52.113Z,0
2019-04-30T01:05:52.676Z,0
2019-04-30T01:07:39.655Z,0
2019-04-30T01:08:39.282Z,0
2019-04-30T01:09:46.507Z,0
2019-04-30T01:10:41.472Z,0
2019-04-30T01:12:30.919Z,0
2019-04-30T01:13:29.134Z,0
2019-04-30T01:14:31.915Z,0
2019-04-30T01:15:31.313Z,0
2019-04-30T01:17:16.350Z,0
2019-04-30T01:18:16.924Z,0
2019-04-30T01:19:29.529Z,0
2019-04-30T01:20:19.396Z,0
2019-04-30T01:22:04.241Z,0
2019-04-30T01:23:09.892Z,0
2019-04-30T01:24:06.381Z,0
2019-04-30T01:25:11.715Z,0
2019-04-30T01:26:52.985Z,0
2019-04-30T01:27:53.558Z,0
2019-04-30T01:28:58.534Z,0
2019-04-30T01:29:55.699Z,0
2019-04-30T01:31:40.918Z,0
2019-04-30T01:32:41.405Z,0
2019-04-30T01:33:41.975Z,0
2019-04-30T01:34:44.347Z,0
2019-04-30T01:36:29.386Z,0
2019-04-30T01:38:49.045Z,0
2019-04-30T01:39:46.834Z,0
2019-04-30T01:43:44.041Z,0
2019-04-30T01:44:50.416Z,0
2019-04-30T01:45:46.169Z,0
2019-04-30T01:46:48.318Z,0
2019-04-30T01:48:51.932Z,0
2019-04-30T01:49:56.025Z,0
2019-04-30T01:50:53.450Z,0
2019-04-30T01:51:57.306Z,0
2019-04-30T01:53:43.599Z,0
2019-04-30T01:54:41.974Z,0
2019-04-30T01:55:42.547Z,0
2019-04-30T01:56:43.122Z,0
2019-04-30T01:58:29.943Z,0
2019-04-30T01:59:29.777Z,0
2019-04-30T02:00:30.351Z,0
2019-04-30T02:01:31.119Z,0
2019-04-30T02:03:16.313Z,0
2019-04-30T02:04:16.891Z,0
2019-04-30T02:05:18.879Z,0
2019-04-30T02:06:19.686Z,0
2019-04-30T02:08:04.157Z,0
2019-04-30T02:09:04.782Z,0
2019-04-30T02:10:05.406Z,0
2019-04-30T02:11:05.981Z,0
2019-04-30T02:12:51.117Z,0
2019-04-30T02:13:51.692Z,0
2019-04-30T02:14:52.266Z,0
2019-04-30T02:15:52.845Z,0
2019-04-30T02:17:38.826Z,0
2019-04-30T02:18:39.492Z,0
2019-04-30T02:19:40.103Z,0
2019-04-30T02:20:40.678Z,0
2019-04-30T02:22:25.716Z,0
2019-04-30T02:23:26.290Z,0
2019-04-30T02:24:28.777Z,0
2019-04-30T02:25:29.561Z,0
2019-04-30T02:27:14.460Z,0
2019-04-30T02:28:15.034Z,0
2019-04-30T02:29:15.606Z,0
2019-04-30T02:30:16.184Z,0
2019-04-30T02:32:01.270Z,0
2019-04-30T02:33:01.841Z,0
2019-04-30T02:34:02.466Z,0
2019-04-30T02:35:03.081Z,0
2019-04-30T02:36:49.940Z,0
2019-04-30T02:37:50.547Z,0
2019-04-30T02:38:51.115Z,0
2019-04-30T02:39:51.692Z,0
2019-04-30T02:41:36.817Z,0
2019-04-30T02:42:39.707Z,0
2019-04-30T02:43:39.853Z,0
2019-04-30T02:44:40.734Z,0
2019-04-30T02:46:25.936Z,0
2019-04-30T02:47:26.561Z,0
2019-04-30T02:48:29.285Z,0
2019-04-30T02:49:30.413Z,0
2019-04-30T02:51:14.783Z,0
2019-04-30T02:52:15.355Z,0
2019-04-30T02:53:15.928Z,0
2019-04-30T02:54:16.503Z,0
2019-04-30T02:56:02.654Z,0
2019-04-30T02:57:03.158Z,0
2019-04-30T02:58:03.734Z,0
2019-04-30T02:59:04.327Z,0
2019-04-30T03:00:49.632Z,0
2019-04-30T03:01:50.392Z,0
2019-04-30T03:02:50.996Z,0
2019-04-30T03:03:51.540Z,0
2019-04-30T03:05:39.114Z,0
2019-04-30T03:06:39.519Z,0
2019-04-30T03:07:40.671Z,0
2019-04-30T03:08:40.537Z,0
2019-04-30T03:10:25.627Z,0
2019-04-30T03:11:26.204Z,0
2019-04-30T03:12:26.776Z,0
2019-04-30T03:13:29.934Z,0
2019-04-30T03:15:13.382Z,0
2019-04-30T03:16:13.955Z,0
2019-04-30T03:17:14.527Z,0
2019-04-30T03:18:15.109Z,0
2019-04-30T03:20:03.434Z,0
2019-04-30T03:21:01.807Z,0
2019-04-30T03:22:02.402Z,0
2019-04-30T03:23:02.953Z,0
2019-04-30T03:24:50.120Z,0
2019-04-30T03:25:50.169Z,0
2019-04-30T03:26:50.849Z,0
2019-04-30T03:27:51.399Z,0
2019-04-30T03:29:36.536Z,0
2019-04-30T03:30:41.392Z,0
2019-04-30T03:31:44.148Z,0
2019-04-30T03:32:42.874Z,0
2019-04-30T03:34:26.408Z,0
2019-04-30T03:35:31.697Z,0
2019-04-30T03:36:32.376Z,0
2019-04-30T03:37:30.092Z,0
2019-04-30T03:39:15.179Z,0
2019-04-30T03:40:15.752Z,0
2019-04-30T03:41:16.324Z,0
2019-04-30T03:42:19.679Z,0
2019-04-30T03:44:17.282Z,0
2019-04-30T03:45:03.641Z,0
2019-04-30T03:46:04.212Z,0
2019-04-30T03:47:04.784Z,0
2019-04-30T03:48:50.454Z,0
2019-04-30T03:49:50.682Z,0
2019-04-30T03:50:56.625Z,0
2019-04-30T03:51:52.820Z,0
2019-04-30T03:53:42.390Z,0
2019-04-30T03:54:40.873Z,0
2019-04-30T03:55:40.334Z,0
2019-04-30T03:56:40.904Z,0
2019-04-30T03:58:25.993Z,0
2019-04-30T03:59:26.567Z,0
2019-04-30T04:00:27.141Z,0
2019-04-30T04:01:29.476Z,0
2019-04-30T04:03:13.846Z,0
2019-04-30T04:04:14.472Z,0
2019-04-30T04:05:15.051Z,0
2019-04-30T04:06:15.662Z,0
2019-04-30T04:08:00.711Z,0
2019-04-30T04:09:01.312Z,0
2019-04-30T04:10:01.888Z,0
2019-04-30T04:11:02.457Z,0
2019-04-30T04:12:49.849Z,0
2019-04-30T04:13:49.516Z,0
2019-04-30T04:14:50.986Z,0
2019-04-30T04:15:51.717Z,0
2019-04-30T04:17:39.450Z,0
2019-04-30T04:18:40.216Z,0
2019-04-30T04:19:39.992Z,0
2019-04-30T04:20:42.845Z,0
2019-04-30T04:22:26.641Z,0
2019-04-30T04:23:29.639Z,0
2019-04-30T04:24:30.247Z,0
2019-04-30T04:25:30.400Z,0
2019-04-30T04:27:15.437Z,0
2019-04-30T04:28:16.011Z,0
2019-04-30T04:29:19.366Z,0
2019-04-30T04:30:20.372Z,0
2019-04-30T04:32:04.188Z,0
2019-04-30T04:33:04.756Z,0
2019-04-30T04:34:05.329Z,0
2019-04-30T04:35:05.902Z,0
2019-04-30T04:36:50.945Z,0
2019-04-30T04:37:51.554Z,0
2019-04-30T04:38:52.177Z,0
2019-04-30T04:39:52.751Z,0
2019-04-30T04:41:39.907Z,0
2019-04-30T04:42:39.738Z,0
2019-04-30T04:43:40.244Z,0
2019-04-30T04:44:40.685Z,0
2019-04-30T04:46:25.825Z,0
2019-04-30T04:47:26.397Z,0
2019-04-30T04:48:29.608Z,0
2019-04-30T04:49:30.559Z,0
2019-04-30T04:51:33.385Z,0
2019-04-30T04:52:16.233Z,0
2019-04-30T04:53:19.329Z,0
2019-04-30T04:54:20.222Z,0
2019-04-30T04:56:04.507Z,0
2019-04-30T04:57:16.902Z,0
2019-04-30T04:58:06.697Z,0
2019-04-30T04:59:07.274Z,0
2019-04-30T05:00:52.360Z,0
2019-04-30T05:01:52.935Z,0
2019-04-30T05:02:53.509Z,0
2019-04-30T05:03:54.087Z,0
2019-04-30T05:05:39.838Z,0
2019-04-30T05:06:40.580Z,0
2019-04-30T05:07:41.146Z,0
2019-04-30T05:08:41.770Z,0
2019-04-30T05:10:26.809Z,0
2019-04-30T05:11:29.335Z,0
2019-04-30T05:12:29.723Z,0
2019-04-30T05:13:30.428Z,0
2019-04-30T05:15:15.463Z,0
2019-04-30T05:16:16.037Z,0
2019-04-30T05:17:16.610Z,0
2019-04-30T05:18:19.051Z,0
2019-04-30T05:20:03.262Z,0
2019-04-30T05:21:03.842Z,0
2019-04-30T05:22:04.417Z,0
2019-04-30T05:23:04.992Z,0
2019-04-30T05:24:50.079Z,0
2019-04-30T05:25:50.676Z,0
2019-04-30T05:26:51.225Z,0
2019-04-30T05:27:51.806Z,0
2019-04-30T05:29:38.596Z,0
2019-04-30T05:30:39.297Z,0
2019-04-30T05:31:39.954Z,0
2019-04-30T05:32:40.526Z,0
2019-04-30T05:34:25.764Z,0
2019-04-30T05:35:26.340Z,0
2019-04-30T05:36:26.912Z,0
2019-04-30T05:37:28.467Z,0
2019-04-30T05:39:13.568Z,0
2019-04-30T05:40:14.140Z,0
2019-04-30T05:41:14.714Z,0
2019-04-30T05:42:15.288Z,0
2019-04-30T05:44:00.376Z,0
2019-04-30T05:45:00.952Z,0
2019-04-30T05:46:01.524Z,0
2019-04-30T05:47:02.106Z,0
2019-04-30T05:48:49.326Z,0
2019-04-30T05:49:49.106Z,0
2019-04-30T05:50:51.770Z,0
2019-04-30T05:51:55.572Z,0
2019-04-30T05:53:39.202Z,0
2019-04-30T05:54:39.071Z,0
2019-04-30T05:55:39.542Z,0
2019-04-30T05:56:42.718Z,0
2019-04-30T05:58:26.430Z,0
2019-04-30T05:59:28.810Z,0
2019-04-30T06:00:30.274Z,0
2019-04-30T06:01:29.535Z,0
2019-04-30T06:03:24.941Z,0
2019-04-30T06:04:14.920Z,0
2019-04-30T06:05:15.493Z,0
2019-04-30T06:06:16.067Z,0
2019-04-30T06:08:01.103Z,0
2019-04-30T06:09:06.618Z,0
2019-04-30T06:10:03.243Z,0
2019-04-30T06:11:03.870Z,0
2019-04-30T06:12:49.429Z,0
2019-04-30T06:13:49.976Z,0
2019-04-30T06:14:51.748Z,0
2019-04-30T06:15:52.169Z,0
2019-04-30T06:17:39.107Z,0
2019-04-30T06:18:38.774Z,0
2019-04-30T06:19:39.349Z,8
2019-04-30T06:20:39.973Z,0
2019-04-30T06:22:25.009Z,0
2019-04-30T06:23:25.581Z,0
2019-04-30T06:24:28.168Z,0
2019-04-30T06:25:36.906Z,0
2019-04-30T06:27:12.898Z,0
2019-04-30T06:28:13.472Z,0
2019-04-30T06:29:14.047Z,0
2019-04-30T06:30:14.672Z,0
2019-04-30T06:31:59.809Z,0
2019-04-30T06:33:00.384Z,8
2019-04-30T06:34:00.958Z,8
2019-04-30T06:35:01.535Z,8
2019-04-30T06:36:51.845Z,8
2019-04-30T06:37:48.847Z,8
2019-04-30T06:38:49.560Z,8
2019-04-30T06:39:50.237Z,0
2019-04-30T06:41:35.213Z,0
2019-04-30T06:42:35.785Z,0
2019-04-30T06:43:36.358Z,0
2019-04-30T06:44:39.380Z,0
2019-04-30T06:46:23.013Z,0
2019-04-30T06:47:32.816Z,0
2019-04-30T06:48:25.210Z,0
2019-04-30T06:49:25.780Z,0
2019-04-30T06:51:10.873Z,0
2019-04-30T06:52:19.969Z,0
2019-04-30T06:53:12.059Z,0
2019-04-30T06:54:12.684Z,0
2019-04-30T06:55:58.975Z,0
2019-04-30T06:56:59.645Z,0
2019-04-30T06:58:11.508Z,0
2019-04-30T06:59:00.620Z,0
2019-04-30T07:00:45.651Z,0
2019-04-30T07:01:46.224Z,0
2019-04-30T07:02:46.799Z,0
2019-04-30T07:03:48.702Z,0
2019-04-30T07:05:33.401Z,0
2019-04-30T07:06:37.128Z,0
2019-04-30T07:07:39.025Z,0
2019-04-30T07:08:40.464Z,0
2019-04-30T07:10:23.197Z,0
2019-04-30T07:11:23.773Z,0
2019-04-30T07:12:27.836Z,0
2019-04-30T07:13:25.918Z,0
2019-04-30T07:15:13.558Z,0
2019-04-30T07:16:12.578Z,0
2019-04-30T07:17:13.154Z,0
2019-04-30T07:18:13.780Z,0
2019-04-30T07:19:59.681Z,0
2019-04-30T07:21:00.362Z,0
2019-04-30T07:22:00.940Z,0
2019-04-30T07:23:03.333Z,0
2019-04-30T07:24:49.503Z,0
2019-04-30T07:25:51.610Z,0
2019-04-30T07:26:54.767Z,0
2019-04-30T07:27:51.362Z,0
2019-04-30T07:29:36.450Z,0
2019-04-30T07:30:39.354Z,0
2019-04-30T07:31:39.296Z,0
2019-04-30T07:32:39.220Z,0
2019-04-30T07:34:24.359Z,0
2019-04-30T07:35:24.938Z,0
2019-04-30T07:36:43.296Z,0
2019-04-30T07:37:29.229Z,0
2019-04-30T07:39:13.222Z,0
2019-04-30T07:40:13.787Z,0
2019-04-30T07:41:14.360Z,0
2019-04-30T07:42:14.935Z,0
2019-04-30T07:44:00.020Z,0
2019-04-30T07:45:00.864Z,0
2019-04-30T07:46:01.207Z,0
2019-04-30T07:47:02.030Z,0
2019-04-30T07:48:46.906Z,0
2019-04-30T07:49:54.905Z,0
2019-04-30T07:50:51.741Z,0
2019-04-30T07:51:52.139Z,4
2019-04-30T07:53:36.892Z,4
2019-04-30T07:54:39.541Z,4
2019-04-30T07:55:39.397Z,4
2019-04-30T07:56:41.703Z,4
2019-04-30T07:58:25.823Z,4
2019-04-30T07:59:26.398Z,4
2019-04-30T08:00:31.002Z,4
2019-04-30T08:01:29.470Z,4
2019-04-30T08:03:14.675Z,4
2019-04-30T08:04:15.309Z,4
2019-04-30T08:05:15.882Z,8
2019-04-30T08:06:19.013Z,8
2019-04-30T08:08:20.617Z,4
2019-04-30T08:09:04.178Z,8
2019-04-30T08:10:04.788Z,8
2019-04-30T08:11:05.363Z,8
2019-04-30T08:12:51.175Z,8
2019-04-30T08:13:52.256Z,8
2019-04-30T08:14:53.053Z,8
2019-04-30T08:15:53.625Z,12
2019-04-30T08:17:38.988Z,8
2019-04-30T08:18:39.551Z,8
2019-04-30T08:19:41.035Z,12
2019-04-30T08:20:40.787Z,12
2019-04-30T08:22:25.932Z,8
2019-04-30T08:23:34.835Z,8
2019-04-30T08:24:29.057Z,8
2019-04-30T08:25:29.133Z,12
2019-04-30T08:27:14.269Z,12
2019-04-30T08:28:14.845Z,12
2019-04-30T08:29:15.420Z,8
2019-04-30T08:30:23.883Z,8
2019-04-30T08:32:01.121Z,8
2019-04-30T08:33:01.695Z,8
2019-04-30T08:34:02.320Z,8
2019-04-30T08:35:02.944Z,8
2019-04-30T08:36:48.919Z,12
2019-04-30T08:37:49.765Z,12
2019-04-30T08:38:50.111Z,12
2019-04-30T08:39:50.836Z,12
2019-04-30T08:41:35.914Z,8
2019-04-30T08:42:39.747Z,12
2019-04-30T08:43:39.394Z,12
2019-04-30T08:44:39.717Z,12
2019-04-30T08:46:24.813Z,12
2019-04-30T08:47:25.394Z,12
2019-04-30T08:48:41.706Z,16
2019-04-30T08:49:29.789Z,12
2019-04-30T08:51:14.333Z,16
2019-04-30T08:52:14.286Z,16
2019-04-30T08:53:26.768Z,12
2019-04-30T08:54:16.427Z,16
2019-04-30T08:56:01.515Z,12
2019-04-30T08:57:02.092Z,16
2019-04-30T08:58:10.074Z,16
2019-04-30T08:59:04.233Z,16
2019-04-30T09:00:49.371Z,16
2019-04-30T09:01:49.949Z,16
2019-04-30T09:02:50.572Z,16
2019-04-30T09:03:51.456Z,16
2019-04-30T09:05:38.527Z,20
2019-04-30T09:06:39.070Z,16
2019-04-30T09:07:39.661Z,16
2019-04-30T09:08:40.308Z,16
2019-04-30T09:10:25.362Z,16
2019-04-30T09:11:32.160Z,16
2019-04-30T09:12:27.504Z,16
2019-04-30T09:13:28.667Z,20
2019-04-30T09:15:13.269Z,20
2019-04-30T09:16:13.835Z,20
2019-04-30T09:17:14.409Z,20
2019-04-30T09:18:15.037Z,20
2019-04-30T09:20:00.223Z,20
2019-04-30T09:21:05.982Z,20
2019-04-30T09:22:02.370Z,20
2019-04-30T09:23:02.945Z,20
2019-04-30T09:24:49.779Z,20
2019-04-30T09:25:49.849Z,24
2019-04-30T09:26:50.422Z,24
2019-04-30T09:27:50.997Z,20
2019-04-30T09:29:36.034Z,20
2019-04-30T09:30:38.555Z,20
2019-04-30T09:31:40.797Z,24
2019-04-30T09:32:39.794Z,20
2019-04-30T09:34:24.884Z,20
2019-04-30T09:35:25.460Z,20
2019-04-30T09:36:26.036Z,20
2019-04-30T09:37:26.614Z,24
2019-04-30T09:39:11.699Z,24
2019-04-30T09:40:17.919Z,28
2019-04-30T09:41:13.843Z,28
2019-04-30T09:42:14.418Z,28
2019-04-30T09:43:59.823Z,28
2019-04-30T09:45:00.391Z,24
2019-04-30T09:46:01.014Z,24
2019-04-30T09:47:01.644Z,24
2019-04-30T09:48:46.677Z,24
2019-04-30T09:49:49.390Z,24
2019-04-30T09:50:49.745Z,24
2019-04-30T09:51:50.679Z,28
2019-04-30T09:53:35.910Z,24
2019-04-30T09:54:36.507Z,24
2019-04-30T09:55:38.947Z,28
2019-04-30T09:56:39.346Z,24
2019-04-30T09:58:24.381Z,24
2019-04-30T09:59:25.006Z,24
2019-04-30T10:00:25.581Z,24
2019-04-30T10:01:26.158Z,24
2019-04-30T10:03:11.942Z,32
2019-04-30T10:04:12.375Z,32
2019-04-30T10:05:14.028Z,32
2019-04-30T10:06:14.706Z,32
2019-04-30T10:07:59.746Z,28
2019-04-30T10:09:00.472Z,16
2019-04-30T10:10:01.074Z,20
2019-04-30T10:11:01.664Z,28
2019-04-30T10:12:46.843Z,28
2019-04-30T10:13:47.424Z,28
2019-04-30T10:14:49.405Z,28
2019-04-30T10:15:50.190Z,28
2019-04-30T10:17:33.792Z,28
2019-04-30T10:18:34.418Z,32
2019-04-30T10:19:34.990Z,28
2019-04-30T10:20:35.565Z,28
2019-04-30T10:22:20.601Z,28
2019-04-30T10:23:21.225Z,28
2019-04-30T10:24:21.805Z,28
2019-04-30T10:25:22.377Z,28
2019-04-30T10:27:12.945Z,28
2019-04-30T10:28:10.028Z,24
2019-04-30T10:29:10.619Z,28
2019-04-30T10:30:11.227Z,28
2019-04-30T10:31:56.321Z,5000
2019-04-30T10:32:56.951Z,4956
2019-04-30T10:33:58.627Z,5048
2019-04-30T10:34:59.104Z,5748
2019-04-30T10:36:44.247Z,4884
2019-04-30T10:37:44.830Z,5664
2019-04-30T10:38:45.409Z,5652
2019-04-30T10:39:46.056Z,5200
2019-04-30T10:41:31.171Z,4744
2019-04-30T10:42:34.593Z,5204
2019-04-30T10:43:33.327Z,4768
2019-04-30T10:44:33.912Z,4828
2019-04-30T10:46:18.998Z,4860
2019-04-30T10:47:19.631Z,4760
2019-04-30T10:48:20.213Z,4912
2019-04-30T10:49:20.849Z,7012
2019-04-30T10:51:05.986Z,7928
2019-04-30T10:52:06.568Z,8516
2019-04-30T10:53:09.034Z,8992
2019-04-30T10:54:08.829Z,9092
2019-04-30T10:55:53.955Z,10276
2019-04-30T10:56:54.540Z,10992
2019-04-30T10:57:55.120Z,9444
2019-04-30T10:58:55.726Z,9612
2019-04-30T11:00:40.806Z,9140
2019-04-30T11:01:41.382Z,9200
2019-04-30T11:02:42.061Z,10148
2019-04-30T11:03:42.938Z,11632
2019-04-30T11:05:29.235Z,9272
2019-04-30T11:06:29.688Z,9060
2019-04-30T11:07:30.274Z,8608
2019-04-30T11:08:30.855Z,7180
2019-04-30T11:10:15.951Z,7636
2019-04-30T11:11:16.542Z,7676
2019-04-30T11:12:17.119Z,9596
2019-04-30T11:13:17.702Z,7308
2019-04-30T11:15:02.751Z,8344
2019-04-30T11:16:12.659Z,9288
2019-04-30T11:17:05.134Z,6440
2019-04-30T11:18:06.036Z,6752
2019-04-30T11:19:51.449Z,8552
2019-04-30T11:20:52.023Z,10672
2019-04-30T11:21:52.777Z,9692
2019-04-30T11:22:54.889Z,7296
2019-04-30T11:24:53.799Z,9680
2019-04-30T11:26:43.555Z,13668
2019-04-30T11:27:46.344Z,12624
2019-04-30T11:29:31.755Z,11476
2019-04-30T11:30:32.607Z,9068
2019-04-30T11:32:35.176Z,11936
2019-04-30T11:34:20.387Z,10180
2019-04-30T11:35:21.082Z,11548
2019-04-30T11:36:21.672Z,12564
2019-04-30T11:37:22.347Z,10532
2019-04-30T11:39:23.324Z,7792
2019-04-30T11:40:31.479Z,13956
2019-04-30T11:41:31.057Z,9780
2019-04-30T11:46:09.318Z,12548
2019-04-30T11:47:09.897Z,16356
2019-04-30T11:48:10.474Z,7520
2019-04-30T11:49:11.054Z,14172
2019-04-30T11:53:24.587Z,11936
2019-04-30T11:54:14.773Z,8352
2019-04-30T11:55:15.361Z,12428
2019-04-30T11:57:00.463Z,10268
2019-04-30T11:58:01.050Z,8904
2019-04-30T11:59:01.696Z,13252
2019-04-30T12:00:02.325Z,12968
2019-04-30T12:01:47.422Z,8416
2019-04-30T12:02:52.631Z,8732
2019-04-30T12:03:49.831Z,16132
2019-04-30T12:04:50.437Z,11764
2019-04-30T12:06:35.536Z,8708
2019-04-30T12:07:36.125Z,12548
2019-04-30T12:08:36.711Z,15252
2019-04-30T12:09:38.571Z,8540
2019-04-30T12:11:23.388Z,13932
2019-04-30T12:12:23.977Z,11840
2019-04-30T12:13:24.619Z,11448
2019-04-30T12:14:25.200Z,11928
2019-04-30T12:16:10.354Z,11772
2019-04-30T12:17:10.990Z,12300
2019-04-30T12:18:11.630Z,12452
2019-04-30T12:19:12.217Z,10792
2019-04-30T12:20:57.317Z,12492
2019-04-30T12:21:57.908Z,12708
2019-04-30T12:22:59.183Z,17072
2019-04-30T12:25:45.846Z,12336
2019-04-30T12:26:46.434Z,14228
2019-04-30T12:27:48.833Z,12308
2019-04-30T12:34:00.234Z,9116
2019-04-30T12:35:00.814Z,13620
2019-04-30T12:36:01.453Z,12468
2019-04-30T12:37:46.524Z,11468
2019-04-30T12:41:18.255Z,12944
2019-04-30T12:42:19.027Z,11744
2019-04-30T12:43:19.651Z,11504
2019-04-30T12:45:35.538Z,10948
2019-04-30T12:46:36.131Z,10964
2019-04-30T12:50:24.305Z,11528
2019-04-30T12:53:42.013Z,10308
2019-04-30T12:54:42.597Z,10248
2019-04-30T12:56:27.581Z,10432
2019-04-30T12:57:29.520Z,10152
2019-04-30T12:58:29.846Z,9896
2019-04-30T12:59:30.430Z,9708
2019-04-30T13:02:34.200Z,9768
2019-04-30T13:06:18.994Z,10192
2019-04-30T13:07:20.933Z,10340
2019-04-30T13:09:05.310Z,10612
2019-04-30T13:10:56.403Z,10416
2019-04-30T13:11:59.816Z,9992
2019-04-30T13:12:59.386Z,9840
2019-04-30T13:14:51.409Z,9928
2019-04-30T13:15:43.583Z,9916
2019-04-30T13:32:02.328Z,10772
2019-04-30T13:33:02.976Z,10824
2019-04-30T13:34:03.568Z,11280
2019-04-30T13:35:04.202Z,11296
2019-04-30T13:36:49.460Z,11576
2019-04-30T13:37:50.050Z,12160
2019-04-30T13:38:52.319Z,12980
2019-04-30T13:39:53.122Z,14240
2019-04-30T13:41:38.336Z,15704
2019-04-30T13:42:39.058Z,16088
2019-04-30T13:43:40.207Z,16432
2019-04-30T13:44:40.810Z,16924
2019-04-30T13:46:25.929Z,16668
2019-04-30T13:47:26.573Z,16568
2019-04-30T13:48:27.170Z,15644
2019-04-30T13:49:30.003Z,10992
2019-04-30T13:51:13.816Z,6844
2019-04-30T13:52:14.503Z,6704
2019-04-30T13:53:15.100Z,6676
2019-04-30T13:56:01.722Z,6792
2019-04-30T13:59:07.982Z,7928
2019-04-30T14:01:10.446Z,8428
2019-04-30T14:02:11.083Z,8852
2019-04-30T14:06:42.848Z,39584
2019-04-30T14:07:43.487Z,40672
2019-04-30T14:38:00.428Z,50688
2019-04-30T14:39:13.493Z,45536
2019-04-30T14:40:02.516Z,43552
2019-04-30T14:42:50.079Z,17880
2019-04-30T14:43:51.286Z,10548
2019-04-30T14:44:51.939Z,32608
2019-04-30T14:45:52.368Z,25056
2019-04-30T14:47:15.655Z,24256
2019-04-30T14:49:21.168Z,26752
2019-04-30T14:50:19.658Z,24960
2019-04-30T14:52:04.768Z,24096
2019-04-30T14:55:22.390Z,22208
2019-04-30T14:56:22.973Z,21248
2019-04-30T14:58:09.687Z,18720
2019-04-30T14:59:09.670Z,19776
2019-04-30T15:00:10.356Z,18560
2019-04-30T15:01:10.948Z,14596
2019-04-30T15:02:55.884Z,19424
2019-04-30T15:03:56.476Z,15588
2019-04-30T15:04:58.705Z,13724
2019-04-30T15:05:59.004Z,19360
2019-04-30T15:09:03.741Z,32480
2019-04-30T15:10:04.329Z,28992
2019-04-30T15:11:04.919Z,25088
2019-04-30T15:12:05.508Z,28288
2019-04-30T15:17:09.257Z,7060
2019-04-30T15:18:09.887Z,7284
2019-04-30T15:19:55.022Z,6580
2019-04-30T15:20:55.604Z,6144
2019-04-30T15:21:56.224Z,6612
2019-04-30T15:22:58.640Z,7076
2019-04-30T15:24:42.695Z,7024
2019-04-30T15:25:43.278Z,6724
2019-04-30T15:26:43.911Z,5936
2019-04-30T15:27:47.621Z,5704
2019-04-30T15:29:30.371Z,6048
2019-04-30T15:30:30.998Z,5552
2019-04-30T15:31:31.581Z,6804
2019-04-30T15:32:32.161Z,5996
2019-04-30T15:34:19.106Z,6308
2019-04-30T15:35:32.438Z,4188
2019-04-30T15:36:33.022Z,6360
2019-04-30T15:38:51.929Z,5780
2019-04-30T15:41:19.716Z,5888
2019-04-30T15:42:20.347Z,5720
2019-04-30T15:44:30.818Z,6280
2019-04-30T15:45:31.447Z,6000
2019-04-30T15:49:19.690Z,4968
2019-04-30T15:50:20.273Z,6288
2019-04-30T15:51:21.057Z,7028
2019-04-30T15:52:21.838Z,5916
2019-04-30T15:57:29.413Z,3444
2019-04-30T15:59:13.494Z,3468
2019-04-30T16:00:14.076Z,3656
2019-04-30T16:01:14.659Z,3232
2019-04-30T16:02:15.440Z,3264
2019-04-30T16:04:00.373Z,3240
2019-04-30T16:05:00.954Z,2644
2019-04-30T16:06:03.475Z,3564
2019-04-30T16:07:03.121Z,3952
2019-04-30T16:08:48.270Z,3924
2019-04-30T16:10:50.483Z,4572
2019-04-30T16:11:51.070Z,2748
2019-04-30T16:13:36.123Z,4068
2019-04-30T16:14:36.761Z,3912
2019-04-30T16:15:38.527Z,3612
2019-04-30T16:16:39.140Z,4076
2019-04-30T16:18:24.225Z,3548
2019-04-30T16:19:24.810Z,3100
2019-04-30T16:20:25.398Z,3920
2019-04-30T16:21:25.981Z,3500
2019-04-30T16:23:11.130Z,3164
2019-04-30T16:24:11.724Z,3136
2019-04-30T16:29:15.399Z,3672
2019-04-30T16:30:15.988Z,2920
2019-04-30T16:31:16.627Z,3192
2019-04-30T16:32:17.263Z,2548
2019-04-30T16:34:02.308Z,3000
2019-04-30T16:36:19.197Z,2520
2019-04-30T16:39:04.792Z,4164
2019-04-30T16:40:05.625Z,3416
2019-04-30T16:41:06.263Z,3864
2019-04-30T16:42:09.014Z,3584
2019-04-30T16:43:52.986Z,2576
2019-04-30T16:44:53.569Z,2828
2019-04-30T16:45:54.154Z,3584
2019-04-30T16:46:54.736Z,2656
2019-04-30T16:48:39.836Z,2724
2019-04-30T16:49:40.420Z,2696
2019-04-30T16:50:41.002Z,2516
2019-04-30T16:51:41.584Z,2632
2019-04-30T16:53:26.782Z,2340
2019-04-30T16:54:28.530Z,3060
2019-04-30T16:55:29.044Z,3220
2019-04-30T16:56:29.580Z,2716
2019-04-30T16:58:14.625Z,2372
2019-04-30T16:59:15.207Z,2592
2019-04-30T17:00:15.843Z,3228
2019-04-30T17:01:16.423Z,2660
2019-04-30T17:03:01.472Z,2684
2019-04-30T17:04:02.105Z,2632
2019-04-30T17:05:02.687Z,2784
2019-04-30T17:06:03.267Z,3064
2019-04-30T17:07:48.365Z,3176
2019-04-30T17:08:49.534Z,2868
2019-04-30T17:09:50.977Z,2144
2019-04-30T17:10:51.585Z,2184
2019-04-30T17:12:38.631Z,2180
2019-04-30T17:13:38.911Z,2840
2019-04-30T17:14:39.552Z,2536
2019-04-30T17:15:40.185Z,2668
2019-04-30T17:17:25.283Z,1796
2019-04-30T17:18:25.868Z,1644
2019-04-30T17:19:26.447Z,1748
2019-04-30T17:20:28.719Z,2056
2019-04-30T17:22:13.175Z,2140
2019-04-30T17:23:13.752Z,1440
2019-04-30T17:24:14.386Z,1268
2019-04-30T17:25:14.966Z,1260
2019-04-30T17:27:00.064Z,1572
2019-04-30T17:28:01.495Z,1744
2019-04-30T17:29:02.194Z,1540
2019-04-30T17:30:02.826Z,1736
2019-04-30T17:31:48.436Z,1620
2019-04-30T17:32:49.965Z,1772
2019-04-30T17:33:50.610Z,1736
2019-04-30T17:34:51.242Z,1620
2019-04-30T17:36:36.438Z,2180
2019-04-30T17:37:37.068Z,1780
2019-04-30T17:39:41.092Z,1128
2019-04-30T17:41:24.358Z,1580
2019-04-30T17:42:24.941Z,1360
2019-04-30T17:43:25.524Z,1272
2019-04-30T17:44:26.104Z,1208
2019-04-30T17:46:11.204Z,1300
2019-04-30T17:47:11.787Z,1056
2019-04-30T17:48:12.367Z,1276
2019-04-30T17:49:12.948Z,1356
2019-04-30T17:50:59.392Z,1360
2019-04-30T17:51:59.822Z,1360
2019-04-30T17:53:00.784Z,1236
2019-04-30T17:54:01.359Z,1104
2019-04-30T17:55:46.703Z,1208
2019-04-30T17:56:47.284Z,1080
2019-04-30T17:57:48.714Z,1092
2019-04-30T17:58:49.315Z,1404
2019-04-30T18:00:34.359Z,1236
2019-04-30T18:01:34.940Z,1192
2019-04-30T18:02:35.572Z,1220
2019-04-30T18:03:36.151Z,1328
2019-04-30T18:06:22.819Z,1000
2019-04-30T18:07:23.400Z,904
2019-04-30T18:08:23.986Z,856
2019-04-30T18:10:09.077Z,932
2019-04-30T18:11:09.658Z,996
2019-04-30T18:12:10.238Z,1124
2019-04-30T18:13:10.821Z,916
2019-04-30T18:14:55.911Z,860
2019-04-30T18:15:56.489Z,824
2019-04-30T18:16:57.068Z,876
2019-04-30T18:17:57.804Z,932
2019-04-30T18:19:42.944Z,1140
2019-04-30T18:20:43.526Z,1024
2019-04-30T18:21:44.107Z,1176
2019-04-30T18:22:44.690Z,1124
2019-04-30T18:24:29.782Z,784
2019-04-30T18:25:30.364Z,1064
2019-04-30T18:26:30.994Z,808
2019-04-30T18:27:42.832Z,804
2019-04-30T18:30:21.124Z,976
2019-04-30T18:31:20.850Z,1096
2019-04-30T18:35:09.339Z,796
2019-04-30T18:36:09.917Z,804
2019-04-30T18:37:10.497Z,852
2019-04-30T18:38:55.590Z,680
2019-04-30T18:40:59.468Z,620
2019-04-30T18:45:49.440Z,464
2019-04-30T18:46:49.562Z,456
2019-04-30T18:50:31.102Z,332
2019-04-30T18:54:33.557Z,280
2019-04-30T18:57:13.527Z,352
2019-04-30T18:58:14.108Z,340